createdAt,value
2022-12-20T00:01:35.216Z,32.50
2022-12-20T00:04:05.261Z,32.85
2022-12-20T00:06:33.797Z,32.80
2022-12-20T00:09:02.312Z,30.23
2022-12-20T00:11:30.002Z,31.58
2022-12-20T00:13:57.885Z,29.73
2022-12-20T00:16:29.326Z,32.97
2022-12-20T00:18:59.251Z,32.90
2022-12-20T00:21:26.851Z,32.20
2022-12-20T00:23:54.432Z,30.83
2022-12-20T00:26:24.550Z,29.90
2022-12-20T00:28:52.942Z,30.30
2022-12-20T00:31:21.025Z,31.00
2022-12-20T00:33:49.704Z,28.02
2022-12-20T00:36:18.163Z,31.52
2022-12-20T00:38:46.180Z,29.58
2022-12-20T00:41:19.140Z,31.15
2022-12-20T00:43:46.081Z,30.67
2022-12-20T00:46:13.849Z,30.92
2022-12-20T00:48:41.112Z,29.05
2022-12-20T00:51:10.892Z,29.98
2022-12-20T00:53:38.033Z,29.00
2022-12-20T00:56:05.652Z,30.38
2022-12-20T00:58:34.528Z,30.33
2022-12-20T01:01:01.273Z,29.75
2022-12-20T01:03:28.307Z,30.80
2022-12-20T01:06:00.758Z,30.48
2022-12-20T01:08:29.738Z,30.42
2022-12-20T01:11:19.890Z,31.23
2022-12-20T01:13:49.529Z,28.70
2022-12-20T01:16:23.997Z,28.77
2022-12-20T01:18:51.573Z,31.13
2022-12-20T01:21:20.374Z,28.65
2022-12-20T01:23:47.768Z,27.50
2022-12-20T01:26:18.253Z,28.20
2022-12-20T01:28:47.517Z,28.60
2022-12-20T01:31:16.854Z,28.70
2022-12-20T01:33:44.581Z,29.60
2022-12-20T01:36:14.119Z,30.08
2022-12-20T01:38:41.052Z,29.35
2022-12-20T01:41:08.266Z,28.83
2022-12-20T01:43:56.127Z,31.75
2022-12-20T01:46:25.816Z,29.98
2022-12-20T01:49:02.412Z,27.15
2022-12-20T01:51:32.076Z,28.17
2022-12-20T01:54:12.980Z,28.15
2022-12-20T01:56:45.548Z,27.95
2022-12-20T01:59:14.076Z,28.02
2022-12-20T02:01:43.101Z,27.38
2022-12-20T02:04:10.193Z,27.58
2022-12-20T02:06:36.957Z,26.63
2022-12-20T02:09:05.522Z,27.02
2022-12-20T02:11:38.317Z,27.38
2022-12-20T02:14:38.509Z,29.85
2022-12-20T02:17:20.277Z,29.67
2022-12-20T02:20:06.349Z,27.70
2022-12-20T02:22:55.143Z,28.60
2022-12-20T02:25:36.893Z,31.58
2022-12-20T02:28:33.840Z,29.02
2022-12-20T02:31:05.178Z,29.63
2022-12-20T02:33:31.952Z,30.35
2022-12-20T02:35:58.753Z,30.15
2022-12-20T02:38:38.254Z,31.05
2022-12-20T02:41:11.230Z,28.30
2022-12-20T02:44:00.392Z,28.83
2022-12-20T02:46:28.058Z,31.48
2022-12-20T02:49:00.431Z,29.58
2022-12-20T02:51:29.743Z,30.45
2022-12-20T02:53:58.754Z,31.85
2022-12-20T02:56:35.119Z,30.92
2022-12-20T02:59:24.674Z,31.98
2022-12-20T03:01:55.150Z,31.20
2022-12-20T03:04:27.695Z,31.52
2022-12-20T03:07:40.384Z,30.67
2022-12-20T03:10:07.617Z,29.38
2022-12-20T03:12:34.439Z,30.98
2022-12-20T03:15:01.208Z,32.10
2022-12-20T03:17:27.951Z,30.90
2022-12-20T03:19:54.696Z,31.17
2022-12-20T03:22:21.751Z,30.33
2022-12-20T03:24:48.471Z,32.28
2022-12-20T03:27:15.248Z,29.13
2022-12-20T03:29:42.044Z,32.15
2022-12-20T03:32:08.838Z,31.35
2022-12-20T03:34:35.598Z,30.02
2022-12-20T03:37:02.329Z,30.10
2022-12-20T03:39:29.193Z,29.80
2022-12-20T03:41:56.058Z,28.15
2022-12-20T03:44:22.985Z,46.38
2022-12-20T03:46:56.099Z,33.42
2022-12-20T03:49:22.833Z,30.33
2022-12-20T03:51:49.628Z,26.15
2022-12-20T03:54:16.396Z,25.98
2022-12-20T03:56:43.176Z,27.13
2022-12-20T03:59:09.897Z,28.98
2022-12-20T04:01:38.787Z,27.08
2022-12-20T04:04:06.052Z,28.33
2022-12-20T04:06:32.876Z,28.58
2022-12-20T04:08:59.676Z,29.42
2022-12-20T04:11:26.492Z,29.10
2022-12-20T04:13:54.376Z,30.05
2022-12-20T04:16:24.472Z,30.75
2022-12-20T04:18:51.546Z,29.48
2022-12-20T04:21:38.596Z,29.42
2022-12-20T04:24:06.432Z,27.83
2022-12-20T04:26:37.344Z,27.20
2022-12-20T04:29:04.368Z,29.97
2022-12-20T04:31:31.295Z,29.13
2022-12-20T04:33:58.192Z,29.02
2022-12-20T04:36:25.007Z,28.15
2022-12-20T04:38:52.114Z,26.95
2022-12-20T04:41:24.538Z,27.13
2022-12-20T04:43:53.509Z,30.73
2022-12-20T04:46:21.087Z,28.08
2022-12-20T04:48:59.022Z,28.98
2022-12-20T04:51:27.873Z,30.40
2022-12-20T04:53:55.692Z,30.25
2022-12-20T04:56:31.526Z,31.65
2022-12-20T04:58:59.485Z,32.90
2022-12-20T05:01:26.757Z,30.48
2022-12-20T05:03:53.707Z,31.38
2022-12-20T05:06:20.533Z,32.55
2022-12-20T05:08:48.200Z,30.98
2022-12-20T05:11:15.259Z,27.85
2022-12-20T05:13:42.225Z,41.72
2022-12-20T05:16:09.171Z,31.30
2022-12-20T05:18:36.088Z,33.22
2022-12-20T05:21:22.005Z,38.45
2022-12-20T05:24:07.451Z,32.08
2022-12-20T05:26:36.611Z,39.25
2022-12-20T05:29:04.401Z,33.08
2022-12-20T05:31:31.913Z,30.77
2022-12-20T05:33:58.864Z,30.75
2022-12-20T05:36:25.649Z,31.70
2022-12-20T05:38:55.386Z,28.25
2022-12-20T05:41:25.298Z,26.40
2022-12-20T05:43:52.392Z,27.10
2022-12-20T05:46:19.166Z,26.52
2022-12-20T05:48:45.992Z,30.23
2022-12-20T05:51:12.779Z,29.00
2022-12-20T05:53:39.491Z,30.42
2022-12-20T05:56:06.522Z,30.23
2022-12-20T05:58:33.802Z,31.08
2022-12-20T06:01:02.680Z,31.80
2022-12-20T06:03:29.571Z,32.60
2022-12-20T06:05:56.554Z,31.20
2022-12-20T06:08:24.559Z,30.73
2022-12-20T06:10:51.425Z,33.05
2022-12-20T06:13:18.786Z,43.25
2022-12-20T06:15:45.615Z,29.90
2022-12-20T06:18:12.577Z,30.17
2022-12-20T06:20:39.618Z,29.85
2022-12-20T06:23:07.299Z,31.23
2022-12-20T06:25:34.232Z,34.88
2022-12-20T06:28:01.641Z,31.90
2022-12-20T06:30:33.553Z,35.35
2022-12-20T06:33:01.490Z,44.42
2022-12-20T06:35:28.911Z,35.45
2022-12-20T06:37:55.842Z,33.28
2022-12-20T06:40:23.037Z,35.38
2022-12-20T06:42:52.742Z,33.13
2022-12-20T06:45:19.510Z,32.78
2022-12-20T06:47:46.318Z,34.72
2022-12-20T06:50:13.206Z,35.97
2022-12-20T06:52:39.995Z,33.58
2022-12-20T06:55:07.120Z,34.90
2022-12-20T06:57:33.911Z,33.10
2022-12-20T07:00:00.697Z,35.90
2022-12-20T07:02:28.204Z,35.72
2022-12-20T07:04:55.619Z,41.75
2022-12-20T07:07:22.723Z,32.80
2022-12-20T07:09:49.470Z,40.90
2022-12-20T07:12:16.313Z,31.95
2022-12-20T07:14:43.133Z,44.50
2022-12-20T07:17:10.645Z,31.77
2022-12-20T07:19:37.674Z,29.75
2022-12-20T07:22:05.538Z,31.25
2022-12-20T07:24:32.926Z,32.65
2022-12-20T07:26:59.768Z,32.70
2022-12-20T07:29:26.599Z,36.92
2022-12-20T07:31:53.584Z,33.92
2022-12-20T07:34:21.013Z,32.70
2022-12-20T07:36:48.063Z,30.63
2022-12-20T07:39:14.843Z,28.65
2022-12-20T07:41:41.881Z,29.70
2022-12-20T07:44:08.631Z,30.15
2022-12-20T07:46:35.460Z,30.77
2022-12-20T07:49:02.311Z,30.30
2022-12-20T07:51:34.980Z,29.50
2022-12-20T07:54:33.486Z,29.98
2022-12-20T07:57:05.723Z,29.63
2022-12-20T07:59:39.827Z,30.38
2022-12-20T08:02:09.348Z,31.10
2022-12-20T08:04:36.277Z,30.98
2022-12-20T08:07:03.662Z,29.27
2022-12-20T08:09:35.147Z,32.33
2022-12-20T08:12:02.160Z,29.90
2022-12-20T08:14:29.073Z,28.85
2022-12-20T08:16:55.961Z,29.23
2022-12-20T08:19:28.357Z,31.17
2022-12-20T08:21:58.816Z,30.08
2022-12-20T08:24:25.606Z,29.63
2022-12-20T08:26:52.459Z,30.38
2022-12-20T08:29:19.221Z,30.95
2022-12-20T08:31:50.106Z,29.13
2022-12-20T08:34:18.067Z,28.80
2022-12-20T08:36:44.823Z,28.58
2022-12-20T08:39:11.678Z,26.20
2022-12-20T08:41:38.513Z,28.17
2022-12-20T08:44:07.119Z,27.42
2022-12-20T08:46:34.301Z,26.95
2022-12-20T08:49:01.107Z,25.58
2022-12-20T08:51:29.232Z,27.58
2022-12-20T08:53:56.227Z,29.15
2022-12-20T08:56:23.183Z,31.15
2022-12-20T08:58:50.005Z,29.75
2022-12-20T09:01:19.077Z,30.88
2022-12-20T09:03:46.579Z,32.72
2022-12-20T09:06:16.026Z,31.27
2022-12-20T09:08:42.908Z,30.20
2022-12-20T09:11:19.168Z,30.65
2022-12-20T09:13:48.161Z,31.02
2022-12-20T09:16:16.922Z,31.45
2022-12-20T09:18:44.233Z,31.50
2022-12-20T09:21:11.653Z,30.08
2022-12-20T09:23:40.064Z,30.70
2022-12-20T09:26:11.056Z,29.27
2022-12-20T09:28:38.201Z,28.60
2022-12-20T09:31:07.484Z,29.15
2022-12-20T09:33:35.446Z,29.67
2022-12-20T09:36:02.923Z,27.65
2022-12-20T09:38:32.133Z,31.40
2022-12-20T09:41:02.800Z,30.67
2022-12-20T09:43:30.353Z,30.15
2022-12-20T09:46:00.281Z,29.80
2022-12-20T09:48:38.616Z,31.45
2022-12-20T09:51:24.109Z,29.83
2022-12-20T09:53:56.675Z,29.40
2022-12-20T09:56:55.817Z,30.70
2022-12-20T09:59:22.629Z,28.35
2022-12-20T10:01:50.461Z,31.80
2022-12-20T10:04:25.179Z,29.45
2022-12-20T10:07:19.477Z,28.52
2022-12-20T10:10:37.008Z,28.20
2022-12-20T10:13:29.698Z,28.40
2022-12-20T10:16:12.265Z,27.90
2022-12-20T10:18:55.064Z,28.55
2022-12-20T10:21:36.902Z,27.77
2022-12-20T10:24:11.315Z,29.70
2022-12-20T10:26:38.064Z,28.52
2022-12-20T10:29:04.866Z,28.10
2022-12-20T10:31:31.712Z,27.98
2022-12-20T10:33:58.492Z,28.33
2022-12-20T10:36:31.057Z,28.88
2022-12-20T10:39:02.159Z,29.80
2022-12-20T10:41:54.575Z,27.92
2022-12-20T10:44:30.781Z,29.88
2022-12-20T10:46:59.799Z,31.75
2022-12-20T10:49:34.132Z,40.08
2022-12-20T10:52:13.221Z,32.88
2022-12-20T10:54:50.192Z,37.00
2022-12-20T10:57:29.982Z,33.10
2022-12-20T11:00:05.847Z,32.45
2022-12-20T11:02:41.311Z,30.67
2022-12-20T11:05:12.302Z,33.50
2022-12-20T11:10:47.610Z,31.65
2022-12-20T11:13:26.097Z,31.88
2022-12-20T11:15:57.293Z,33.10
2022-12-20T11:18:29.864Z,32.03
2022-12-20T11:23:41.809Z,31.33
2022-12-20T11:26:19.262Z,31.05
2022-12-20T11:28:58.169Z,31.80
2022-12-20T11:32:08.716Z,31.42
2022-12-20T11:34:53.017Z,30.15
2022-12-20T11:37:39.396Z,29.88
2022-12-20T11:40:20.320Z,29.63
2022-12-20T11:42:55.419Z,28.75
2022-12-20T11:45:59.178Z,30.65
2022-12-20T11:48:39.021Z,33.30
2022-12-20T11:51:26.856Z,30.05
2022-12-20T11:54:05.612Z,29.90
2022-12-20T11:56:44.578Z,30.13
2022-12-20T11:59:26.939Z,30.50
2022-12-20T12:02:15.144Z,31.30
2022-12-20T12:04:46.227Z,32.38
2022-12-20T12:07:18.825Z,32.23
2022-12-20T12:09:59.154Z,31.67
2022-12-20T12:12:38.276Z,31.77
2022-12-20T12:15:23.850Z,32.08
2022-12-20T12:18:05.017Z,31.98
2022-12-20T12:21:09.473Z,33.30
2022-12-20T12:23:55.605Z,30.88
2022-12-20T12:26:31.009Z,32.33
2022-12-20T12:29:02.233Z,33.72
2022-12-20T12:31:37.251Z,32.83
2022-12-20T12:34:35.274Z,32.53
2022-12-20T12:37:20.824Z,32.08
2022-12-20T12:40:18.483Z,31.88
2022-12-20T12:43:06.404Z,30.73
2022-12-20T12:45:51.235Z,31.15
2022-12-20T12:48:39.853Z,30.70
2022-12-20T12:51:07.703Z,29.92
2022-12-20T12:53:43.523Z,30.02
2022-12-20T12:56:45.854Z,30.80
2022-12-20T12:59:13.135Z,31.70
2022-12-20T13:02:05.908Z,31.10
2022-12-20T13:05:25.860Z,30.58
2022-12-20T13:07:53.330Z,31.55
2022-12-20T13:10:20.258Z,32.10
2022-12-20T13:12:48.665Z,30.90
2022-12-20T13:15:21.646Z,31.77
2022-12-20T13:18:17.159Z,31.38
2022-12-20T13:21:37.257Z,31.52
2022-12-20T13:24:29.153Z,30.92
2022-12-20T13:27:03.398Z,30.50
2022-12-20T13:29:36.676Z,30.73
2022-12-20T13:32:23.548Z,30.90
2022-12-20T13:34:56.744Z,30.73
2022-12-20T13:37:59.271Z,32.83
2022-12-20T13:40:49.344Z,33.22
2022-12-20T13:43:19.083Z,29.08
2022-12-20T13:45:53.095Z,32.50
2022-12-20T13:48:26.331Z,32.33
2022-12-20T13:50:56.058Z,33.55
2022-12-20T13:53:27.633Z,33.47
2022-12-20T13:55:55.372Z,31.58
2022-12-20T13:58:26.087Z,33.45
2022-12-20T14:00:54.244Z,34.15
2022-12-20T14:03:30.538Z,35.00
2022-12-20T14:06:03.977Z,36.35
2022-12-20T14:08:38.563Z,36.08
2022-12-20T14:11:15.781Z,35.72
2022-12-20T14:13:42.977Z,37.17
2022-12-20T14:16:20.324Z,35.92
2022-12-20T14:18:57.233Z,36.05
2022-12-20T14:21:25.540Z,36.83
2022-12-20T14:23:55.525Z,33.90
2022-12-20T14:26:29.310Z,35.33
2022-12-20T14:29:01.492Z,33.90
2022-12-20T14:31:40.774Z,33.33
2022-12-20T14:34:10.783Z,35.00
2022-12-20T14:36:45.895Z,37.00
2022-12-20T14:39:26.227Z,38.42
2022-12-20T14:42:03.226Z,37.97
2022-12-20T14:44:31.618Z,38.75
2022-12-20T14:47:24.653Z,36.72
2022-12-20T14:50:04.318Z,36.17
2022-12-20T14:52:39.008Z,37.17
2022-12-20T14:55:14.481Z,34.08
2022-12-20T14:57:51.996Z,35.75
2022-12-20T15:00:18.829Z,37.15
2022-12-20T15:02:45.895Z,34.40
2022-12-20T15:05:35.336Z,35.83
2022-12-20T15:08:13.934Z,36.53
2022-12-20T15:10:43.046Z,41.85
2022-12-20T15:13:14.502Z,39.08
2022-12-20T15:15:45.327Z,41.55
2022-12-20T15:18:17.791Z,44.15
2022-12-20T15:20:47.659Z,39.03
2022-12-20T15:23:17.149Z,39.65
2022-12-20T15:25:45.275Z,38.90
2022-12-20T15:28:21.343Z,36.40
2022-12-20T15:30:49.541Z,35.67
2022-12-20T15:33:25.931Z,52.65
2022-12-20T15:35:53.366Z,41.75
2022-12-20T15:38:40.655Z,59.72
2022-12-20T15:41:18.925Z,46.35
2022-12-20T15:43:46.095Z,53.83
2022-12-20T15:46:13.303Z,86.53
2022-12-20T15:48:40.227Z,55.80
2022-12-20T15:51:28.139Z,49.20
2022-12-20T15:53:55.292Z,45.67
2022-12-20T15:56:25.566Z,53.22
2022-12-20T15:58:55.079Z,48.25
2022-12-20T16:01:27.378Z,37.63
2022-12-20T16:03:54.577Z,39.72
2022-12-20T16:06:21.497Z,53.17
2022-12-20T16:08:48.309Z,39.33
2022-12-20T16:11:21.619Z,39.38
2022-12-20T16:13:49.245Z,40.33
2022-12-20T16:16:24.437Z,37.50
2022-12-20T16:18:53.807Z,41.75
2022-12-20T16:21:26.072Z,46.47
2022-12-20T16:23:54.110Z,38.90
2022-12-20T16:26:23.427Z,37.22
2022-12-20T16:28:51.735Z,39.58
2022-12-20T16:31:34.677Z,39.05
2022-12-20T16:34:05.457Z,38.85
2022-12-20T16:36:33.361Z,41.38
2022-12-20T16:39:00.418Z,40.47
2022-12-20T16:41:29.912Z,37.95
2022-12-20T16:43:59.410Z,39.47
2022-12-20T16:46:30.133Z,37.55
2022-12-20T16:48:58.895Z,37.50
2022-12-20T16:51:39.808Z,41.22
2022-12-20T16:54:19.779Z,34.90
2022-12-20T16:56:48.364Z,38.38
2022-12-20T16:59:23.139Z,67.15
2022-12-20T17:01:53.404Z,35.03
2022-12-20T17:04:21.415Z,31.60
2022-12-20T17:06:48.891Z,34.50
2022-12-20T17:09:16.327Z,34.63
2022-12-20T17:11:43.469Z,43.90
2022-12-20T17:14:13.107Z,38.50
2022-12-20T17:16:40.968Z,35.13
2022-12-20T17:19:09.131Z,36.10
2022-12-20T17:24:23.505Z,35.05
2022-12-20T17:26:50.806Z,46.80
2022-12-20T17:29:20.842Z,34.97
2022-12-20T17:31:48.458Z,38.05
2022-12-20T17:34:26.714Z,45.22
2022-12-20T17:36:56.160Z,49.15
2022-12-20T17:39:24.314Z,45.45
2022-12-20T17:41:53.023Z,45.97
2022-12-20T17:44:27.785Z,42.03
2022-12-20T17:46:56.123Z,40.85
2022-12-20T17:49:23.469Z,42.13
2022-12-20T17:51:51.638Z,40.03
2022-12-20T17:54:26.491Z,37.95
2022-12-20T17:56:53.826Z,41.05
2022-12-20T17:59:22.367Z,39.78
2022-12-20T18:01:49.546Z,40.25
2022-12-20T18:04:17.101Z,41.55
2022-12-20T18:06:45.533Z,41.22
2022-12-20T18:09:20.997Z,40.72
2022-12-20T18:11:48.063Z,39.92
2022-12-20T18:14:15.327Z,40.67
2022-12-20T18:16:42.339Z,42.20
2022-12-20T18:19:17.909Z,41.50
2022-12-20T18:21:45.540Z,42.30
2022-12-20T18:24:14.300Z,41.92
2022-12-20T18:26:45.252Z,41.22
2022-12-20T18:29:12.106Z,41.78
2022-12-20T18:31:39.109Z,41.80
2022-12-20T18:34:06.588Z,42.80
2022-12-20T18:36:36.648Z,40.13
2022-12-20T18:39:06.861Z,40.17
2022-12-20T18:41:34.615Z,41.90
2022-12-20T18:44:04.199Z,42.60
2022-12-20T18:46:31.037Z,42.42
2022-12-20T18:49:01.712Z,40.10
2022-12-20T18:51:31.587Z,41.13
2022-12-20T18:53:59.920Z,39.92
2022-12-20T18:56:30.913Z,42.65
2022-12-20T18:59:04.496Z,42.03
2022-12-20T19:01:37.750Z,42.03
2022-12-20T19:04:06.116Z,41.60
2022-12-20T19:06:33.291Z,40.22
2022-12-20T19:09:01.666Z,40.03
2022-12-20T19:11:29.787Z,40.42
2022-12-20T19:13:57.006Z,41.33
2022-12-20T19:16:26.434Z,39.33
2022-12-20T19:19:11.862Z,48.30
2022-12-20T19:21:41.590Z,46.03
2022-12-20T19:24:12.797Z,51.78
2022-12-20T19:30:34.841Z,48.03
2022-12-20T19:34:35.658Z,46.08
2022-12-20T19:36:43.055Z,45.67
2022-12-20T19:50:02.519Z,42.10
2022-12-20T19:54:49.878Z,41.75
2022-12-20T20:01:40.748Z,45.08
2022-12-20T20:04:10.017Z,44.13
2022-12-20T20:06:42.828Z,43.00
2022-12-20T20:09:10.323Z,43.90
2022-12-20T20:12:15.626Z,41.35
2022-12-20T20:14:42.721Z,42.80
2022-12-20T20:17:10.230Z,43.33
2022-12-20T20:19:38.022Z,42.75
2022-12-20T20:22:07.335Z,45.08
2022-12-20T20:30:42.410Z,41.15
2022-12-20T20:36:34.186Z,43.90
2022-12-20T20:39:01.075Z,39.00
2022-12-20T20:41:47.837Z,43.55
2022-12-20T20:44:14.747Z,45.90
2022-12-20T20:48:09.996Z,45.38
2022-12-20T20:50:11.010Z,46.67
2022-12-20T20:52:49.258Z,45.42
2022-12-20T20:55:19.153Z,41.75
2022-12-20T20:57:46.156Z,40.45
2022-12-20T21:00:13.413Z,40.67
2022-12-20T21:02:42.370Z,41.83
2022-12-20T21:06:00.130Z,41.28
2022-12-20T21:07:57.012Z,41.10
2022-12-20T21:10:27.022Z,39.75
2022-12-20T21:12:54.083Z,41.13
2022-12-20T21:15:23.038Z,45.33
2022-12-20T21:17:50.640Z,39.85
2022-12-20T21:20:22.041Z,40.20
2022-12-20T21:22:53.524Z,40.60
2022-12-20T21:25:22.400Z,42.33
2022-12-20T21:27:56.106Z,41.03
2022-12-20T21:30:28.275Z,41.42
2022-12-20T21:33:02.990Z,38.85
2022-12-20T21:36:05.658Z,38.42
2022-12-20T21:38:35.541Z,40.67
2022-12-20T21:41:19.917Z,39.47
2022-12-20T21:43:46.799Z,38.03
2022-12-20T21:57:17.847Z,57.47
2022-12-20T21:59:50.226Z,39.75
2022-12-20T22:02:24.029Z,39.72
2022-12-20T22:04:50.850Z,36.60
2022-12-20T22:07:20.705Z,38.08
2022-12-20T22:09:47.438Z,36.90
2022-12-20T22:12:16.712Z,37.65
2022-12-20T22:14:43.528Z,39.30
2022-12-20T22:17:35.669Z,40.10
2022-12-20T22:20:00.810Z,39.55
2022-12-20T22:22:27.655Z,35.33
2022-12-20T22:24:54.737Z,36.33
2022-12-20T22:27:21.618Z,45.40
2022-12-20T22:29:48.439Z,38.20
2022-12-20T22:32:16.291Z,41.85
2022-12-20T22:34:48.084Z,39.97
2022-12-20T22:37:15.009Z,74.40
2022-12-20T22:39:43.942Z,42.97
2022-12-20T22:42:10.784Z,36.70
2022-12-20T22:44:40.949Z,38.03
2022-12-20T22:47:11.026Z,36.00
2022-12-20T22:50:05.759Z,39.72
2022-12-20T22:52:51.763Z,38.75
2022-12-20T22:55:18.774Z,39.47
2022-12-20T22:57:45.567Z,42.00
2022-12-20T23:00:13.195Z,38.30
2022-12-20T23:02:43.121Z,40.15
2022-12-20T23:05:09.954Z,40.92
2022-12-20T23:07:40.965Z,41.15
2022-12-20T23:10:28.219Z,36.97
2022-12-20T23:13:13.679Z,33.95
2022-12-20T23:15:40.447Z,36.15
2022-12-20T23:18:07.260Z,38.55
2022-12-20T23:20:52.513Z,35.72
2022-12-20T23:23:19.292Z,37.90
2022-12-20T23:25:46.115Z,38.10
2022-12-20T23:28:12.914Z,37.35
2022-12-20T23:30:39.628Z,37.58
2022-12-20T23:33:06.360Z,38.13
2022-12-20T23:35:33.146Z,36.20
2022-12-20T23:37:59.947Z,37.85
2022-12-20T23:40:26.662Z,38.72
2022-12-20T23:42:54.560Z,38.05
2022-12-20T23:45:21.484Z,36.40
2022-12-20T23:47:48.287Z,36.42
2022-12-20T23:50:15.071Z,38.42
2022-12-20T23:52:41.908Z,36.03
2022-12-20T23:55:09.118Z,34.95
2022-12-20T23:57:36.156Z,37.05
